createdAt,value
2017-07-23T00:00:16.911Z,28.44
2017-07-23T00:01:16.398Z,28.36
2017-07-23T00:02:16.716Z,28.37
2017-07-23T00:03:16.442Z,28.43
2017-07-23T00:04:16.467Z,28.33
2017-07-23T00:05:16.799Z,28.3
2017-07-23T00:06:16.838Z,28.43
2017-07-23T00:07:16.868Z,28.41
2017-07-23T00:08:16.588Z,28.31
2017-07-23T00:09:16.305Z,28.34
2017-07-23T00:10:16.957Z,28.43
2017-07-23T00:11:16.985Z,28.44
2017-07-23T00:12:16.709Z,28.44
2017-07-23T00:13:17.044Z,28.4
2017-07-23T00:14:17.076Z,28.41
2017-07-23T00:15:17.358Z,28.43
2017-07-23T00:16:17.134Z,28.44
2017-07-23T00:17:16.856Z,28.39
2017-07-23T00:18:17.197Z,28.34
2017-07-23T00:19:16.921Z,28.39
2017-07-23T00:20:17.503Z,28.39
2017-07-23T00:21:17.303Z,28.4
2017-07-23T00:22:17.015Z,28.39
2017-07-23T00:23:17.033Z,28.41
2017-07-23T00:24:17.373Z,28.4
2017-07-23T00:25:17.659Z,28.41
2017-07-23T00:26:17.118Z,28.41
2017-07-23T00:27:17.144Z,28.48
2017-07-23T00:28:17.182Z,28.39
2017-07-23T00:29:17.539Z,28.39
2017-07-23T00:30:17.810Z,28.41
2017-07-23T00:31:17.580Z,28.4
2017-07-23T00:32:17.628Z,28.43
2017-07-23T00:33:17.320Z,28.3
2017-07-23T00:34:17.672Z,28.37
2017-07-23T00:35:17.963Z,28.41
2017-07-23T00:36:17.740Z,28.36
2017-07-23T00:37:17.451Z,28.37
2017-07-23T00:38:17.478Z,28.34
2017-07-23T00:39:17.512Z,28.34
2017-07-23T00:40:17.787Z,28.44
2017-07-23T00:41:17.880Z,28.4
2017-07-23T00:42:17.602Z,28.39
2017-07-23T00:43:17.642Z,28.33
2017-07-23T00:44:17.960Z,28.29
2017-07-23T00:45:18.303Z,28.27
2017-07-23T00:46:18.035Z,28.29
2017-07-23T00:47:18.053Z,28.36
2017-07-23T00:48:17.465Z,28.27
2017-07-23T00:49:17.827Z,28.31
2017-07-23T00:50:17.836Z,28.19
2017-07-23T00:51:18.176Z,28.24
2017-07-23T00:52:17.895Z,28.21
2017-07-23T00:53:18.243Z,28.19
2017-07-23T00:54:17.956Z,28.21
2017-07-23T00:55:17.984Z,28.22
2017-07-23T00:56:18.324Z,28.22
2017-07-23T00:57:18.354Z,28.25
2017-07-23T00:58:18.382Z,28.19
2017-07-23T00:59:18.099Z,28.21
2017-07-23T01:00:18.445Z,28.21
2017-07-23T01:01:18.474Z,28.22
2017-07-23T01:02:17.878Z,28.24
2017-07-23T01:03:18.218Z,28.25
2017-07-23T01:04:18.252Z,28.19
2017-07-23T01:05:18.590Z,28.15
2017-07-23T01:06:18.309Z,28.18
2017-07-23T01:07:18.653Z,28.17
2017-07-23T01:08:18.056Z,28.17
2017-07-23T01:09:18.710Z,28.17
2017-07-23T01:10:18.749Z,28.09
2017-07-23T01:11:18.145Z,28.12
2017-07-23T01:12:18.798Z,28.06
2017-07-23T01:13:18.835Z,28.06
2017-07-23T01:14:18.869Z,28.06
2017-07-23T01:15:18.932Z,28.03
2017-07-23T01:16:18.915Z,28
2017-07-23T01:17:18.330Z,28.04
2017-07-23T01:18:18.983Z,28.09
2017-07-23T01:19:19.012Z,28.12
2017-07-23T01:20:19.036Z,28.04
2017-07-23T01:21:18.435Z,28.06
2017-07-23T01:22:18.786Z,28.03
2017-07-23T01:23:19.127Z,28.02
2017-07-23T01:24:19.160Z,28.12
2017-07-23T01:25:18.877Z,28.06
2017-07-23T01:26:18.906Z,28.11
2017-07-23T01:27:18.926Z,28.03
2017-07-23T01:28:19.291Z,28.11
2017-07-23T01:29:19.296Z,28.02
2017-07-23T01:30:19.022Z,28.03
2017-07-23T01:31:19.362Z,28.02
2017-07-23T01:32:19.092Z,28
2017-07-23T01:33:19.430Z,28.04
2017-07-23T01:34:19.144Z,28.04
2017-07-23T01:35:18.859Z,27.93
2017-07-23T01:36:19.201Z,27.99
2017-07-23T01:37:19.227Z,27.94
2017-07-23T01:38:19.256Z,28.04
2017-07-23T01:39:19.600Z,27.96
2017-07-23T01:40:19.013Z,27.96
2017-07-23T01:41:19.340Z,27.96
2017-07-23T01:42:19.694Z,28
2017-07-23T01:43:19.727Z,27.96
2017-07-23T01:44:19.436Z,27.94
2017-07-23T01:45:19.457Z,27.97
2017-07-23T01:46:19.502Z,27.97
2017-07-23T01:47:19.207Z,27.93
2017-07-23T01:48:19.555Z,27.94
2017-07-23T01:49:19.888Z,27.94
2017-07-23T01:50:19.928Z,27.94
2017-07-23T01:51:19.959Z,27.99
2017-07-23T01:52:19.682Z,27.96
2017-07-23T01:53:20.016Z,27.99
2017-07-23T01:54:20.048Z,27.99
2017-07-23T01:55:20.074Z,27.99
2017-07-23T01:56:20.110Z,27.99
2017-07-23T01:57:19.819Z,28.02
2017-07-23T01:58:19.840Z,28
2017-07-23T01:59:19.878Z,27.96
2017-07-23T02:00:20.225Z,28.04
2017-07-23T02:01:20.254Z,27.99
2017-07-23T02:02:20.279Z,27.96
2017-07-23T02:03:20.313Z,27.99
2017-07-23T02:04:20.341Z,27.99
2017-07-23T02:05:20.054Z,27.97
2017-07-23T02:06:20.399Z,27.94
2017-07-23T02:07:20.111Z,27.99
2017-07-23T02:08:20.452Z,27.96
2017-07-23T02:09:20.488Z,27.93
2017-07-23T02:10:20.202Z,27.97
2017-07-23T02:11:20.482Z,27.96
2017-07-23T02:12:20.280Z,28.02
2017-07-23T02:13:20.300Z,28
2017-07-23T02:14:20.629Z,28.04
2017-07-23T02:15:20.662Z,27.99
2017-07-23T02:16:20.630Z,28.02
2017-07-23T02:17:20.408Z,28.07
2017-07-23T02:18:20.760Z,28.03
2017-07-23T02:19:20.474Z,27.97
2017-07-23T02:20:20.814Z,28.04
2017-07-23T02:21:21.135Z,28.02
2017-07-23T02:22:20.555Z,28.02
2017-07-23T02:23:20.277Z,28.02
2017-07-23T02:24:20.921Z,28
2017-07-23T02:25:20.646Z,28
2017-07-23T02:26:21.235Z,27.96
2017-07-23T02:27:20.708Z,27.94
2017-07-23T02:28:20.737Z,27.96
2017-07-23T02:29:21.069Z,28
2017-07-23T02:30:21.106Z,28
2017-07-23T02:31:21.391Z,27.96
2017-07-23T02:32:21.168Z,27.96
2017-07-23T02:33:20.581Z,28.02
2017-07-23T02:34:21.222Z,28.06
2017-07-23T02:35:20.939Z,28.03
2017-07-23T02:36:21.578Z,27.96
2017-07-23T02:37:21.004Z,27.94
2017-07-23T02:38:20.721Z,28.03
2017-07-23T02:39:21.374Z,28.06
2017-07-23T02:40:21.390Z,28.04
2017-07-23T02:41:21.723Z,28.02
2017-07-23T02:42:21.152Z,28.09
2017-07-23T02:43:21.484Z,27.93
2017-07-23T02:44:21.514Z,28.03
2017-07-23T02:45:21.551Z,27.96
2017-07-23T02:46:21.564Z,28.04
2017-07-23T02:47:21.609Z,28.07
2017-07-23T02:48:21.320Z,27.92
2017-07-23T02:49:21.346Z,28.02
2017-07-23T02:50:21.691Z,27.94
2017-07-23T02:51:21.980Z,27.97
2017-07-23T02:52:21.445Z,27.93
2017-07-23T02:53:21.157Z,27.93
2017-07-23T02:54:21.814Z,28.02
2017-07-23T02:55:21.838Z,27.92
2017-07-23T02:56:21.855Z,28.02
2017-07-23T02:57:21.891Z,27.99
2017-07-23T02:58:21.629Z,27.99
2017-07-23T02:59:21.650Z,27.99
2017-07-23T03:00:21.363Z,28.02
2017-07-23T03:01:22.002Z,27.99
2017-07-23T03:02:21.737Z,27.96
2017-07-23T03:03:21.753Z,27.93
2017-07-23T03:04:22.109Z,28.02
2017-07-23T03:05:21.820Z,27.97
2017-07-23T03:06:21.782Z,27.97
2017-07-23T03:07:22.197Z,28
2017-07-23T03:08:22.221Z,27.93
2017-07-23T03:09:22.270Z,28.04
2017-07-23T03:10:21.970Z,27.96
2017-07-23T03:11:22.572Z,28.02
2017-07-23T03:12:22.345Z,27.94
2017-07-23T03:13:22.061Z,27.99
2017-07-23T03:14:22.087Z,28.02
2017-07-23T03:15:22.115Z,28.02
2017-07-23T03:16:22.763Z,27.88
2017-07-23T03:17:22.177Z,27.94
2017-07-23T03:18:22.205Z,27.88
2017-07-23T03:19:22.555Z,27.9
2017-07-23T03:20:22.575Z,27.85
2017-07-23T03:21:22.902Z,27.87
2017-07-23T03:22:22.634Z,27.85
2017-07-23T03:23:22.354Z,27.92
2017-07-23T03:24:22.374Z,27.96
2017-07-23T03:25:22.412Z,27.85
2017-07-23T03:26:23.004Z,27.87
2017-07-23T03:27:22.153Z,27.92
2017-07-23T03:28:22.818Z,27.96
2017-07-23T03:29:22.531Z,27.88
2017-07-23T03:30:22.872Z,27.88
2017-07-23T03:31:23.162Z,27.92
2017-07-23T03:32:22.617Z,27.93
2017-07-23T03:33:22.950Z,27.92
2017-07-23T03:34:22.987Z,27.93
2017-07-23T03:35:22.696Z,27.88
2017-07-23T03:36:22.431Z,27.9
2017-07-23T03:37:23.076Z,27.87
2017-07-23T03:38:22.794Z,27.87
2017-07-23T03:39:23.137Z,27.88
2017-07-23T03:40:23.168Z,27.88
2017-07-23T03:41:22.571Z,27.87
2017-07-23T03:42:22.914Z,27.87
2017-07-23T03:43:22.937Z,27.84
2017-07-23T03:44:22.963Z,27.93
2017-07-23T03:45:22.995Z,27.93
2017-07-23T03:46:23.344Z,27.82
2017-07-23T03:47:23.054Z,27.93
2017-07-23T03:48:23.398Z,27.92
2017-07-23T03:49:23.429Z,27.9
2017-07-23T03:50:23.463Z,27.93
2017-07-23T03:51:23.177Z,27.92
2017-07-23T03:52:23.202Z,27.93
2017-07-23T03:53:23.546Z,27.85
2017-07-23T03:54:23.580Z,27.87
2017-07-23T03:55:23.607Z,27.87
2017-07-23T03:56:23.325Z,27.9
2017-07-23T03:57:23.676Z,27.92
2017-07-23T03:58:23.684Z,27.88
2017-07-23T03:59:23.731Z,27.9
2017-07-23T04:00:23.441Z,27.79
2017-07-23T04:01:23.469Z,27.9
2017-07-23T04:02:23.186Z,27.96
2017-07-23T04:03:23.838Z,27.87
2017-07-23T04:04:23.559Z,27.93
2017-07-23T04:05:23.901Z,27.93
2017-07-23T04:06:23.929Z,27.79
2017-07-23T04:07:23.958Z,27.82
2017-07-23T04:08:23.995Z,27.87
2017-07-23T04:09:23.712Z,27.79
2017-07-23T04:10:23.732Z,27.81
2017-07-23T04:11:24.073Z,27.82
2017-07-23T04:12:23.802Z,27.82
2017-07-23T04:13:23.824Z,27.87
2017-07-23T04:14:24.164Z,27.82
2017-07-23T04:15:23.877Z,27.82
2017-07-23T04:16:24.222Z,27.78
2017-07-23T04:17:24.249Z,27.84
2017-07-23T04:18:24.271Z,27.81
2017-07-23T04:19:24.312Z,27.82
2017-07-23T04:20:24.336Z,27.87
2017-07-23T04:21:24.057Z,27.81
2017-07-23T04:22:24.330Z,27.85
2017-07-23T04:23:24.428Z,27.84
2017-07-23T04:24:24.144Z,27.92
2017-07-23T04:25:24.484Z,27.79
2017-07-23T04:26:24.511Z,27.81
2017-07-23T04:27:24.842Z,27.82
2017-07-23T04:28:24.258Z,27.82
2017-07-23T04:29:24.603Z,27.82
2017-07-23T04:30:24.633Z,27.85
2017-07-23T04:31:24.663Z,27.87
2017-07-23T04:32:24.630Z,27.82
2017-07-23T04:33:24.407Z,27.82
2017-07-23T04:34:24.436Z,27.84
2017-07-23T04:35:24.772Z,27.84
2017-07-23T04:36:24.807Z,27.84
2017-07-23T04:37:25.147Z,27.79
2017-07-23T04:38:24.872Z,27.81
2017-07-23T04:39:24.580Z,27.84
2017-07-23T04:40:24.929Z,27.85
2017-07-23T04:41:24.643Z,27.85
2017-07-23T04:42:25.227Z,27.84
2017-07-23T04:43:25.014Z,27.81
2017-07-23T04:44:24.733Z,27.84
2017-07-23T04:45:25.077Z,27.81
2017-07-23T04:46:25.109Z,27.84
2017-07-23T04:47:25.070Z,27.85
2017-07-23T04:48:25.160Z,27.87
2017-07-23T04:49:24.876Z,27.78
2017-07-23T04:50:25.224Z,27.79
2017-07-23T04:51:25.255Z,27.82
2017-07-23T04:52:25.215Z,27.77
2017-07-23T04:53:25.308Z,27.84
2017-07-23T04:54:25.025Z,27.85
2017-07-23T04:55:25.053Z,27.84
2017-07-23T04:56:25.395Z,27.85
2017-07-23T04:57:25.055Z,27.82
2017-07-23T04:58:25.449Z,27.75
2017-07-23T04:59:25.485Z,27.81
2017-07-23T05:00:25.198Z,27.81
2017-07-23T05:01:25.554Z,27.79
2017-07-23T05:02:25.820Z,27.79
2017-07-23T05:03:25.281Z,27.79
2017-07-23T05:04:25.630Z,27.75
2017-07-23T05:05:25.658Z,27.82
2017-07-23T05:06:25.371Z,27.81
2017-07-23T05:07:25.703Z,27.78
2017-07-23T05:08:25.745Z,27.85
2017-07-23T05:09:25.769Z,27.85
2017-07-23T05:10:25.501Z,27.84
2017-07-23T05:11:25.831Z,27.81
2017-07-23T05:12:26.165Z,27.82
2017-07-23T05:13:25.585Z,27.82
2017-07-23T05:14:25.617Z,27.77
2017-07-23T05:15:25.950Z,27.85
2017-07-23T05:16:25.979Z,27.84
2017-07-23T05:17:26.262Z,27.85
2017-07-23T05:18:25.732Z,27.9
2017-07-23T05:19:25.761Z,27.81
2017-07-23T05:20:26.094Z,27.78
2017-07-23T05:21:26.146Z,27.81
2017-07-23T05:22:26.408Z,27.82
2017-07-23T05:23:26.185Z,27.79
2017-07-23T05:24:25.906Z,27.85
2017-07-23T05:25:25.931Z,27.85
2017-07-23T05:26:25.960Z,27.87
2017-07-23T05:27:26.559Z,27.84
2017-07-23T05:28:26.021Z,27.85
2017-07-23T05:29:26.382Z,27.85
2017-07-23T05:30:26.398Z,27.9
2017-07-23T05:31:26.108Z,27.82
2017-07-23T05:32:26.703Z,27.85
2017-07-23T05:33:26.478Z,27.82
2017-07-23T05:34:26.501Z,27.79
2017-07-23T05:35:26.230Z,27.87
2017-07-23T05:36:26.564Z,27.85
2017-07-23T05:37:26.852Z,27.87
2017-07-23T05:38:26.312Z,27.82
2017-07-23T05:39:26.653Z,27.88
2017-07-23T05:40:26.675Z,27.81
2017-07-23T05:41:26.716Z,27.88
2017-07-23T05:42:26.732Z,27.9
2017-07-23T05:43:26.145Z,27.82
2017-07-23T05:44:26.486Z,27.82
2017-07-23T05:45:26.515Z,27.88
2017-07-23T05:46:26.863Z,27.81
2017-07-23T05:47:26.874Z,27.9
2017-07-23T05:48:26.915Z,27.87
2017-07-23T05:49:26.318Z,27.84
2017-07-23T05:50:26.976Z,27.78
2017-07-23T05:51:26.695Z,27.84
2017-07-23T05:52:27.285Z,27.87
2017-07-23T05:53:26.442Z,27.88
2017-07-23T05:54:27.087Z,27.81
2017-07-23T05:55:27.127Z,27.84
2017-07-23T05:56:27.151Z,27.88
2017-07-23T05:57:27.433Z,27.87
2017-07-23T05:58:27.220Z,27.81
2017-07-23T05:59:27.230Z,27.78
2017-07-23T06:00:27.263Z,27.85
2017-07-23T06:01:27.301Z,27.84
2017-07-23T06:02:27.635Z,27.87
2017-07-23T06:03:27.354Z,27.88
2017-07-23T06:04:27.075Z,27.84
2017-07-23T06:05:27.103Z,27.85
2017-07-23T06:06:27.449Z,27.84
2017-07-23T06:07:27.154Z,27.85
2017-07-23T06:08:27.191Z,27.85
2017-07-23T06:09:27.531Z,27.81
2017-07-23T06:10:27.252Z,27.87
2017-07-23T06:11:27.589Z,27.81
2017-07-23T06:12:26.998Z,27.82
2017-07-23T06:13:27.326Z,27.87
2017-07-23T06:14:27.679Z,27.84
2017-07-23T06:15:27.707Z,27.81
2017-07-23T06:16:27.739Z,27.77
2017-07-23T06:17:27.761Z,27.81
2017-07-23T06:18:27.184Z,27.92
2017-07-23T06:19:27.831Z,27.84
2017-07-23T06:20:27.855Z,27.9
2017-07-23T06:21:27.260Z,27.9
2017-07-23T06:22:27.910Z,27.75
2017-07-23T06:23:27.945Z,27.85
2017-07-23T06:24:27.976Z,27.88
2017-07-23T06:25:28.004Z,27.88
2017-07-23T06:26:28.033Z,27.9
2017-07-23T06:27:28.066Z,27.87
2017-07-23T06:28:27.782Z,27.87
2017-07-23T06:29:27.803Z,27.92
2017-07-23T06:30:28.148Z,27.82
2017-07-23T06:31:27.861Z,27.87
2017-07-23T06:32:28.206Z,27.9
2017-07-23T06:33:28.495Z,27.96
2017-07-23T06:34:27.955Z,27.9
2017-07-23T06:35:28.303Z,27.84
2017-07-23T06:36:28.326Z,27.9
2017-07-23T06:37:28.353Z,27.87
2017-07-23T06:38:28.329Z,27.87
2017-07-23T06:39:28.416Z,27.85
2017-07-23T06:40:28.438Z,27.88
2017-07-23T06:41:28.474Z,27.88
2017-07-23T06:42:27.882Z,27.96
2017-07-23T06:43:28.835Z,27.88
2017-07-23T06:44:28.560Z,27.93
2017-07-23T06:45:28.592Z,27.92
2017-07-23T06:46:28.310Z,27.9
2017-07-23T06:47:28.339Z,27.93
2017-07-23T06:48:28.975Z,27.88
2017-07-23T06:49:28.708Z,27.84
2017-07-23T06:50:28.431Z,27.93
2017-07-23T06:51:28.460Z,27.9
2017-07-23T06:52:28.798Z,27.92
2017-07-23T06:53:28.764Z,27.9
2017-07-23T06:54:28.849Z,27.9
2017-07-23T06:55:28.884Z,27.9
2017-07-23T06:56:28.918Z,27.93
2017-07-23T06:57:28.942Z,27.9
2017-07-23T06:58:29.232Z,27.88
2017-07-23T06:59:28.996Z,27.88
2017-07-23T07:00:28.721Z,27.88
2017-07-23T07:01:29.052Z,27.94
2017-07-23T07:02:29.094Z,27.93
2017-07-23T07:03:29.416Z,27.88
2017-07-23T07:04:29.148Z,27.88
2017-07-23T07:05:28.865Z,27.84
2017-07-23T07:06:28.897Z,27.92
2017-07-23T07:07:29.234Z,27.88
2017-07-23T07:08:29.524Z,27.96
2017-07-23T07:09:29.297Z,27.93
2017-07-23T07:10:29.322Z,27.85
2017-07-23T07:11:29.358Z,27.97
2017-07-23T07:12:29.383Z,27.92
2017-07-23T07:13:29.677Z,27.88
2017-07-23T07:14:29.161Z,27.87
2017-07-23T07:15:29.472Z,27.88
2017-07-23T07:16:29.510Z,27.94
2017-07-23T07:17:29.219Z,27.88
2017-07-23T07:18:29.500Z,27.92
2017-07-23T07:19:29.589Z,27.85
2017-07-23T07:20:29.310Z,27.87
2017-07-23T07:21:29.339Z,27.96
2017-07-23T07:22:29.368Z,27.85
2017-07-23T07:23:30.010Z,27.88
2017-07-23T07:24:29.447Z,27.87
2017-07-23T07:25:29.766Z,27.88
2017-07-23T07:26:29.486Z,27.87
2017-07-23T07:27:29.845Z,27.93
2017-07-23T07:28:30.104Z,27.93
2017-07-23T07:29:29.601Z,27.96
2017-07-23T07:30:29.922Z,27.84
2017-07-23T07:31:29.942Z,27.9
2017-07-23T07:32:30.016Z,27.97
2017-07-23T07:33:30.256Z,27.92
2017-07-23T07:34:30.061Z,27.9
2017-07-23T07:35:29.747Z,27.93
2017-07-23T07:36:30.102Z,27.93
2017-07-23T07:37:30.120Z,27.92
2017-07-23T07:38:30.144Z,27.85
2017-07-23T07:39:30.182Z,27.87
2017-07-23T07:40:30.206Z,27.9
2017-07-23T07:41:29.931Z,27.96
2017-07-23T07:42:30.264Z,27.87
2017-07-23T07:43:29.677Z,27.88
2017-07-23T07:44:30.326Z,27.93
2017-07-23T07:45:30.347Z,27.93
2017-07-23T07:46:30.386Z,27.92
2017-07-23T07:47:30.416Z,27.85
2017-07-23T07:48:30.444Z,27.93
2017-07-23T07:49:30.162Z,27.88
2017-07-23T07:50:30.515Z,27.88
2017-07-23T07:51:30.538Z,27.94
2017-07-23T07:52:29.938Z,27.85
2017-07-23T07:53:30.285Z,27.75
2017-07-23T07:54:30.613Z,27.94
2017-07-23T07:55:30.338Z,27.9
2017-07-23T07:56:30.378Z,27.87
2017-07-23T07:57:30.715Z,27.9
2017-07-23T07:58:30.423Z,27.85
2017-07-23T07:59:30.449Z,27.93
2017-07-23T08:00:30.801Z,27.87
2017-07-23T08:01:30.837Z,27.9
2017-07-23T08:02:30.854Z,27.92
2017-07-23T08:03:30.251Z,27.88
2017-07-23T08:04:30.866Z,27.87
2017-07-23T08:05:30.943Z,27.9
2017-07-23T08:06:30.980Z,27.94
2017-07-23T08:07:30.729Z,27.99
2017-07-23T08:08:31.021Z,27.94
2017-07-23T08:09:31.318Z,27.99
2017-07-23T08:10:30.780Z,28
2017-07-23T08:11:30.500Z,27.96
2017-07-23T08:12:30.840Z,28
2017-07-23T08:13:31.182Z,27.96
2017-07-23T08:14:30.886Z,27.99
2017-07-23T08:15:31.243Z,27.93
2017-07-23T08:16:30.954Z,28.02
2017-07-23T08:17:31.287Z,28.02
2017-07-23T08:18:30.711Z,27.96
2017-07-23T08:19:31.662Z,27.99
2017-07-23T08:20:31.391Z,27.96
2017-07-23T08:21:30.801Z,27.93
2017-07-23T08:22:31.456Z,27.85
2017-07-23T08:23:30.863Z,27.82
2017-07-23T08:24:31.753Z,27.94
2017-07-23T08:25:31.537Z,27.9
2017-07-23T08:26:31.566Z,27.9
2017-07-23T08:27:31.593Z,27.93
2017-07-23T08:28:31.310Z,27.87
2017-07-23T08:29:31.590Z,27.88
2017-07-23T08:30:31.379Z,27.92
2017-07-23T08:31:31.401Z,27.92
2017-07-23T08:32:31.436Z,27.93
2017-07-23T08:33:31.778Z,27.78
2017-07-23T08:34:31.748Z,27.92
2017-07-23T08:35:31.523Z,27.82
2017-07-23T08:36:31.868Z,27.93
2017-07-23T08:37:31.582Z,27.94
2017-07-23T08:38:31.608Z,27.82
2017-07-23T08:39:32.197Z,27.87
2017-07-23T08:40:31.973Z,27.9
2017-07-23T08:41:32.007Z,27.88
2017-07-23T08:42:32.045Z,27.9
2017-07-23T08:43:31.750Z,27.92
2017-07-23T08:44:31.787Z,27.9
2017-07-23T08:45:31.840Z,27.96
2017-07-23T08:46:31.534Z,27.93
2017-07-23T08:47:32.209Z,27.94
2017-07-23T08:48:31.906Z,27.85
2017-07-23T08:49:32.243Z,27.88
2017-07-23T08:50:31.972Z,27.88
2017-07-23T08:51:32.304Z,27.87
2017-07-23T08:52:32.338Z,27.94
2017-07-23T08:53:32.054Z,27.96
2017-07-23T08:54:31.771Z,27.96
2017-07-23T08:55:31.805Z,27.88
2017-07-23T08:56:32.452Z,27.93
2017-07-23T08:57:32.486Z,27.88
2017-07-23T08:58:32.203Z,27.85
2017-07-23T08:59:32.235Z,27.88
2017-07-23T09:00:32.260Z,27.82
2017-07-23T09:01:31.989Z,27.85
2017-07-23T09:02:32.314Z,27.81
2017-07-23T09:03:32.671Z,27.87
2017-07-23T09:04:32.696Z,27.87
2017-07-23T09:05:32.724Z,27.85
2017-07-23T09:06:32.749Z,27.82
2017-07-23T09:07:32.778Z,27.81
2017-07-23T09:08:32.807Z,27.79
2017-07-23T09:09:32.844Z,27.81
2017-07-23T09:10:32.555Z,27.84
2017-07-23T09:11:32.587Z,27.79
2017-07-23T09:12:32.917Z,27.84
2017-07-23T09:13:32.650Z,27.82
2017-07-23T09:14:32.983Z,27.85
2017-07-23T09:15:32.704Z,27.82
2017-07-23T09:16:33.049Z,27.79
2017-07-23T09:17:32.762Z,27.82
2017-07-23T09:18:33.115Z,27.82
2017-07-23T09:19:32.832Z,27.87
2017-07-23T09:20:33.156Z,27.88
2017-07-23T09:21:33.193Z,27.78
2017-07-23T09:22:33.221Z,27.84
2017-07-23T09:23:32.626Z,27.85
2017-07-23T09:24:32.661Z,27.81
2017-07-23T09:25:33.248Z,27.84
2017-07-23T09:26:33.021Z,27.84
2017-07-23T09:27:33.365Z,27.84
2017-07-23T09:28:33.082Z,27.78
2017-07-23T09:29:33.116Z,27.81
2017-07-23T09:30:33.711Z,27.79
2017-07-23T09:31:33.165Z,27.9
2017-07-23T09:32:33.203Z,27.87
2017-07-23T09:33:33.234Z,27.88
2017-07-23T09:34:33.588Z,27.9
2017-07-23T09:35:33.856Z,27.92
2017-07-23T09:36:33.638Z,27.87
2017-07-23T09:37:33.342Z,27.9
2017-07-23T09:38:33.691Z,27.9
2017-07-23T09:39:33.727Z,27.82
2017-07-23T09:40:33.380Z,27.78
2017-07-23T09:41:33.473Z,27.85
2017-07-23T09:42:33.499Z,27.9
2017-07-23T09:43:33.527Z,27.92
2017-07-23T09:44:33.558Z,27.88
2017-07-23T09:45:33.572Z,27.82
2017-07-23T09:46:33.927Z,27.92
2017-07-23T09:47:33.968Z,27.79
2017-07-23T09:48:33.987Z,27.75
2017-07-23T09:49:33.707Z,27.79
2017-07-23T09:50:34.036Z,27.87
2017-07-23T09:51:33.765Z,27.79
2017-07-23T09:52:34.103Z,27.87
2017-07-23T09:53:33.824Z,27.81
2017-07-23T09:54:33.860Z,27.85
2017-07-23T09:55:34.459Z,27.82
2017-07-23T09:56:33.913Z,27.82
2017-07-23T09:57:33.954Z,27.9
2017-07-23T09:58:34.283Z,27.88
2017-07-23T09:59:34.000Z,27.84
2017-07-23T10:00:34.622Z,27.84
2017-07-23T10:01:34.414Z,27.87
2017-07-23T10:02:34.094Z,27.85
2017-07-23T10:03:34.435Z,27.82
2017-07-23T10:04:34.157Z,27.87
2017-07-23T10:05:34.729Z,27.79
2017-07-23T10:06:34.213Z,27.79
2017-07-23T10:07:34.543Z,27.82
2017-07-23T10:08:34.276Z,27.74
2017-07-23T10:09:34.296Z,27.79
2017-07-23T10:10:34.941Z,27.81
2017-07-23T10:11:34.055Z,27.88
2017-07-23T10:12:34.395Z,27.94
2017-07-23T10:13:34.104Z,27.9
2017-07-23T10:14:34.752Z,27.9
2017-07-23T10:15:34.770Z,27.96
2017-07-23T10:16:34.830Z,27.85
2017-07-23T10:17:34.847Z,27.88
2017-07-23T10:18:34.880Z,27.87
2017-07-23T10:19:34.588Z,27.93
2017-07-23T10:20:35.220Z,27.88
2017-07-23T10:21:34.651Z,27.93
2017-07-23T10:22:34.991Z,27.84
2017-07-23T10:23:34.720Z,27.97
2017-07-23T10:24:35.048Z,27.92
2017-07-23T10:25:35.342Z,27.87
2017-07-23T10:26:34.792Z,27.92
2017-07-23T10:27:35.142Z,27.9
2017-07-23T10:28:34.860Z,27.87
2017-07-23T10:29:35.206Z,27.87
2017-07-23T10:30:35.213Z,27.92
2017-07-23T10:31:34.639Z,27.94
2017-07-23T10:32:35.284Z,27.93
2017-07-23T10:33:35.004Z,27.82
2017-07-23T10:34:35.353Z,27.96
2017-07-23T10:35:35.670Z,27.94
2017-07-23T10:36:35.410Z,27.93
2017-07-23T10:37:34.811Z,27.93
2017-07-23T10:38:35.467Z,27.93
2017-07-23T10:39:35.188Z,27.92
2017-07-23T10:40:35.158Z,27.9
2017-07-23T10:41:35.559Z,27.79
2017-07-23T10:42:35.575Z,27.9
2017-07-23T10:43:35.311Z,27.85
2017-07-23T10:44:35.326Z,27.88
2017-07-23T10:45:35.909Z,27.88
2017-07-23T10:46:35.389Z,27.84
2017-07-23T10:47:35.732Z,27.77
2017-07-23T10:48:35.137Z,27.79
2017-07-23T10:49:35.794Z,27.92
2017-07-23T10:50:36.082Z,27.9
2017-07-23T10:51:35.855Z,27.88
2017-07-23T10:52:35.880Z,27.93
2017-07-23T10:53:35.602Z,27.81
2017-07-23T10:54:35.942Z,27.77
2017-07-23T10:55:36.274Z,27.82
2017-07-23T10:56:35.984Z,27.88
2017-07-23T10:57:36.024Z,27.85
2017-07-23T10:58:36.057Z,27.81
2017-07-23T10:59:36.084Z,27.88
2017-07-23T11:00:36.123Z,27.82
2017-07-23T11:01:36.155Z,27.79
2017-07-23T11:02:35.892Z,27.85
2017-07-23T11:03:35.896Z,27.81
2017-07-23T11:04:35.918Z,27.79
2017-07-23T11:05:35.951Z,27.93
2017-07-23T11:06:36.086Z,27.92
2017-07-23T11:07:36.340Z,27.92
2017-07-23T11:08:36.362Z,27.93
2017-07-23T11:09:36.074Z,27.93
2017-07-23T11:10:36.431Z,27.94
2017-07-23T11:11:35.820Z,27.96
2017-07-23T11:12:36.176Z,28.02
2017-07-23T11:13:36.551Z,28.02
2017-07-23T11:14:36.230Z,28
2017-07-23T11:15:36.567Z,27.93
2017-07-23T11:16:36.595Z,28.07
2017-07-23T11:17:36.339Z,27.93
2017-07-23T11:18:36.342Z,28.03
2017-07-23T11:19:36.684Z,28.02
2017-07-23T11:20:36.090Z,27.93
2017-07-23T11:21:36.454Z,28
2017-07-23T11:22:36.789Z,27.96
2017-07-23T11:23:36.806Z,28.06
2017-07-23T11:24:36.845Z,27.93
2017-07-23T11:25:36.863Z,27.97
2017-07-23T11:26:36.579Z,27.97
2017-07-23T11:27:36.917Z,28.02
2017-07-23T11:28:36.639Z,28.02
2017-07-23T11:29:36.989Z,28.04
2017-07-23T11:30:36.383Z,28.06
2017-07-23T11:31:37.280Z,28.02
2017-07-23T11:32:37.078Z,28.11
2017-07-23T11:33:37.110Z,28.06
2017-07-23T11:34:36.821Z,28.04
2017-07-23T11:35:36.849Z,28.11
2017-07-23T11:36:37.492Z,28.11
2017-07-23T11:37:37.265Z,28.14
2017-07-23T11:38:36.943Z,28.09
2017-07-23T11:39:36.977Z,28.12
2017-07-23T11:40:37.351Z,28
2017-07-23T11:41:37.593Z,28.07
2017-07-23T11:42:37.051Z,28.02
2017-07-23T11:43:37.099Z,28.06
2017-07-23T11:44:37.442Z,28.02
2017-07-23T11:45:36.916Z,27.99
2017-07-23T11:46:37.429Z,28
2017-07-23T11:47:37.522Z,27.94
2017-07-23T11:48:36.934Z,28.02
2017-07-23T11:49:37.583Z,27.94
2017-07-23T11:50:37.644Z,27.99
2017-07-23T11:51:37.893Z,27.99
2017-07-23T11:52:37.668Z,27.93
2017-07-23T11:53:37.698Z,27.96
2017-07-23T11:54:37.727Z,27.99
2017-07-23T11:55:37.759Z,27.97
2017-07-23T11:56:37.730Z,28.09
2017-07-23T11:57:37.821Z,28.09
2017-07-23T11:58:37.860Z,28.19
2017-07-23T11:59:37.888Z,28.24
2017-07-23T12:00:37.601Z,28.31
2017-07-23T12:01:38.202Z,28.43
2017-07-23T12:02:37.662Z,28.4
2017-07-23T12:03:37.688Z,28.51
2017-07-23T12:04:37.719Z,28.55
2017-07-23T12:05:38.058Z,28.66
2017-07-23T12:06:38.393Z,28.67
2017-07-23T12:07:37.806Z,28.64
2017-07-23T12:08:38.152Z,28.78
2017-07-23T12:09:38.180Z,28.95
2017-07-23T12:10:38.213Z,28.95
2017-07-23T12:11:38.185Z,29.15
2017-07-23T12:12:37.963Z,29.19
2017-07-23T12:13:38.312Z,29.21
2017-07-23T12:14:38.023Z,29.37
2017-07-23T12:15:38.053Z,29.51
2017-07-23T12:16:38.646Z,29.53
2017-07-23T12:17:38.432Z,29.58
2017-07-23T12:18:38.144Z,29.61
2017-07-23T12:19:38.176Z,29.49
2017-07-23T12:20:38.521Z,29.63
2017-07-23T12:21:38.814Z,29.55
2017-07-23T12:22:38.279Z,29.57
2017-07-23T12:23:38.311Z,29.6
2017-07-23T12:24:38.340Z,29.53
2017-07-23T12:25:38.366Z,29.51
2017-07-23T12:26:38.654Z,29.55
2017-07-23T12:27:38.432Z,29.61
2017-07-23T12:28:38.776Z,29.7
2017-07-23T12:29:38.807Z,29.79
2017-07-23T12:30:38.214Z,29.85
2017-07-23T12:31:39.133Z,30.04
2017-07-23T12:32:38.899Z,30.1
2017-07-23T12:33:38.626Z,30.24
2017-07-23T12:34:38.965Z,30.38
2017-07-23T12:35:38.998Z,30.47
2017-07-23T12:36:38.963Z,30.51
2017-07-23T12:37:39.058Z,30.49
2017-07-23T12:38:39.097Z,30.53
2017-07-23T12:39:38.814Z,30.39
2017-07-23T12:40:38.851Z,30.34
2017-07-23T12:41:39.135Z,30.29
2017-07-23T12:42:38.924Z,30.26
2017-07-23T12:43:38.948Z,30.11
2017-07-23T12:44:39.294Z,29.97
2017-07-23T12:45:39.323Z,30
2017-07-23T12:46:39.603Z,29.92
2017-07-23T12:47:38.764Z,30
2017-07-23T12:48:39.102Z,30.04
2017-07-23T12:49:39.442Z,30.17
2017-07-23T12:50:39.161Z,30.22
2017-07-23T12:51:39.452Z,30.23
2017-07-23T12:52:39.236Z,30.22
2017-07-23T12:53:39.573Z,30.15
2017-07-23T12:54:39.605Z,30.2
2017-07-23T12:55:39.327Z,30.19
2017-07-23T12:56:39.963Z,30.11